createdAt,value
2017-10-03T00:02:19.876Z,15.40
2017-10-03T00:04:46.441Z,15.50
2017-10-03T00:07:12.956Z,15.40
2017-10-03T00:09:39.317Z,15.50
2017-10-03T00:12:05.718Z,15.40
2017-10-03T00:14:32.140Z,15.40
2017-10-03T00:16:58.530Z,15.40
2017-10-03T00:19:25.891Z,15.40
2017-10-03T00:21:52.976Z,15.40
2017-10-03T00:24:19.392Z,15.40
2017-10-03T00:26:45.754Z,15.30
2017-10-03T00:29:12.076Z,15.40
2017-10-03T00:31:38.369Z,15.40
2017-10-03T00:34:04.752Z,15.40
2017-10-03T00:36:31.137Z,15.40
2017-10-03T00:38:58.186Z,15.30
2017-10-03T00:41:25.376Z,15.30
2017-10-03T00:43:51.747Z,15.30
2017-10-03T00:46:18.115Z,15.30
2017-10-03T00:48:44.574Z,15.30
2017-10-03T00:51:10.968Z,15.30
2017-10-03T00:53:38.162Z,15.20
2017-10-03T00:56:04.543Z,15.20
2017-10-03T00:58:31.707Z,15.20
2017-10-03T01:00:58.195Z,15.20
2017-10-03T01:03:24.673Z,15.20
2017-10-03T01:05:51.127Z,15.10
2017-10-03T01:08:17.526Z,15.20
2017-10-03T01:10:44.654Z,14.30
2017-10-03T01:13:11.004Z,14.30
2017-10-03T01:15:37.370Z,13.60
2017-10-03T01:18:03.731Z,13.30
2017-10-03T01:20:30.112Z,13.10
2017-10-03T01:22:57.217Z,13.10
2017-10-03T01:25:23.778Z,13.00
2017-10-03T01:27:50.184Z,13.00
2017-10-03T01:30:16.628Z,13.00
2017-10-03T01:32:43.088Z,13.00
2017-10-03T01:35:10.257Z,13.00
2017-10-03T01:37:55.240Z,13.00
2017-10-03T01:40:21.662Z,13.00
2017-10-03T01:42:48.088Z,13.00
2017-10-03T01:45:14.416Z,13.00
2017-10-03T01:47:41.518Z,12.90
2017-10-03T01:50:07.968Z,12.80
2017-10-03T01:52:34.318Z,12.90
2017-10-03T01:55:00.662Z,12.80
2017-10-03T01:57:27.780Z,12.80
2017-10-03T01:59:54.130Z,12.80
2017-10-03T02:02:21.250Z,12.80
2017-10-03T02:04:47.613Z,12.80
2017-10-03T02:07:14.013Z,12.80
2017-10-03T02:09:40.422Z,12.90
2017-10-03T02:12:06.881Z,12.80
2017-10-03T02:14:33.207Z,12.90
2017-10-03T02:16:59.579Z,12.90
2017-10-03T02:19:26.756Z,12.80
2017-10-03T02:21:53.090Z,12.80
2017-10-03T02:24:19.481Z,12.80
2017-10-03T02:26:45.895Z,12.80
2017-10-03T02:29:12.302Z,12.90
2017-10-03T02:31:38.689Z,12.90
2017-10-03T02:34:05.018Z,12.90
2017-10-03T02:36:31.424Z,12.90
2017-10-03T02:38:57.855Z,12.90
2017-10-03T02:41:24.242Z,12.90
2017-10-03T02:43:50.641Z,13.00
2017-10-03T02:46:17.047Z,13.00
2017-10-03T02:48:43.449Z,13.00
2017-10-03T02:51:09.829Z,13.00
2017-10-03T02:53:36.172Z,12.90
2017-10-03T02:56:02.540Z,12.90
2017-10-03T02:58:28.852Z,12.90
2017-10-03T03:00:55.968Z,13.10
2017-10-03T03:03:22.318Z,13.00
2017-10-03T03:05:48.752Z,13.10
2017-10-03T03:08:15.184Z,13.10
2017-10-03T03:10:41.587Z,13.10
2017-10-03T03:13:07.960Z,13.10
2017-10-03T03:15:34.330Z,13.10
2017-10-03T03:18:00.759Z,13.10
2017-10-03T03:20:27.181Z,13.10
2017-10-03T03:22:53.598Z,13.20
2017-10-03T03:25:20.021Z,13.10
2017-10-03T03:27:46.544Z,13.10
2017-10-03T03:30:12.824Z,13.00
2017-10-03T03:32:39.298Z,13.00
2017-10-03T03:35:05.727Z,12.90
2017-10-03T03:37:32.080Z,12.80
2017-10-03T03:39:58.421Z,12.80
2017-10-03T03:42:25.567Z,12.70
2017-10-03T03:44:51.867Z,12.70
2017-10-03T03:47:18.297Z,12.70
2017-10-03T03:49:44.675Z,12.80
2017-10-03T03:52:11.083Z,12.80
2017-10-03T03:54:37.440Z,12.80
2017-10-03T03:57:04.550Z,12.70
2017-10-03T03:59:31.026Z,12.70
2017-10-03T04:01:57.426Z,12.70
2017-10-03T04:04:23.862Z,12.60
2017-10-03T04:06:50.262Z,12.60
2017-10-03T04:09:16.712Z,12.60
2017-10-03T04:11:43.103Z,12.60
2017-10-03T04:14:09.596Z,12.60
2017-10-03T04:16:35.984Z,12.60
2017-10-03T04:19:02.393Z,12.60
2017-10-03T04:21:29.519Z,12.60
2017-10-03T04:23:55.915Z,12.60
2017-10-03T04:26:22.260Z,12.60
2017-10-03T04:28:48.618Z,12.60
2017-10-03T04:31:15.068Z,12.60
2017-10-03T04:33:41.538Z,12.60
2017-10-03T04:36:08.017Z,12.60
2017-10-03T04:38:34.349Z,12.70
2017-10-03T04:41:00.726Z,12.70
2017-10-03T04:43:27.091Z,12.70
2017-10-03T04:45:53.433Z,12.70
2017-10-03T04:48:19.825Z,12.70
2017-10-03T04:50:46.492Z,12.60
2017-10-03T04:53:12.905Z,12.60
2017-10-03T04:55:39.443Z,12.70
2017-10-03T04:58:05.913Z,12.70
2017-10-03T05:00:32.289Z,12.70
2017-10-03T05:02:58.734Z,12.50
2017-10-03T05:05:25.172Z,12.50
2017-10-03T05:07:51.621Z,12.60
2017-10-03T05:10:18.055Z,12.60
2017-10-03T05:12:44.515Z,12.60
2017-10-03T05:15:10.872Z,12.60
2017-10-03T05:17:38.105Z,12.50
2017-10-03T05:20:04.462Z,12.50
2017-10-03T05:22:31.623Z,12.50
2017-10-03T05:24:57.976Z,12.50
2017-10-03T05:27:24.350Z,12.50
2017-10-03T05:29:50.770Z,12.50
2017-10-03T05:32:17.262Z,12.40
2017-10-03T05:34:43.649Z,12.30
2017-10-03T05:37:09.989Z,12.20
2017-10-03T05:39:36.330Z,12.20
2017-10-03T05:42:02.799Z,12.10
2017-10-03T05:44:29.194Z,12.00
2017-10-03T05:46:55.579Z,12.00
2017-10-03T05:49:21.961Z,11.90
2017-10-03T05:51:49.120Z,12.00
2017-10-03T05:54:16.307Z,11.90
2017-10-03T05:56:42.650Z,11.90
2017-10-03T05:59:08.994Z,11.90
2017-10-03T06:01:35.399Z,11.90
2017-10-03T06:04:01.785Z,12.00
2017-10-03T06:06:28.385Z,12.10
2017-10-03T06:08:54.803Z,12.10
2017-10-03T06:11:21.171Z,12.00
2017-10-03T06:13:47.581Z,12.10
2017-10-03T06:16:13.958Z,12.10
2017-10-03T06:18:40.315Z,12.10
2017-10-03T06:21:07.388Z,12.30
2017-10-03T06:23:33.741Z,12.30
2017-10-03T06:26:00.102Z,12.20
2017-10-03T06:28:26.490Z,12.20
2017-10-03T06:30:52.806Z,12.20
2017-10-03T06:33:19.166Z,12.20
2017-10-03T06:35:45.537Z,12.10
2017-10-03T06:38:12.665Z,12.20
2017-10-03T06:40:39.100Z,12.10
2017-10-03T06:43:05.568Z,12.20
2017-10-03T06:45:32.727Z,12.10
2017-10-03T06:47:59.029Z,12.10
2017-10-03T06:50:25.361Z,12.10
2017-10-03T06:52:52.699Z,12.20
2017-10-03T06:55:19.129Z,12.20
2017-10-03T06:57:45.683Z,12.20
2017-10-03T07:00:12.026Z,12.20
2017-10-03T07:02:39.084Z,12.10
2017-10-03T07:05:06.564Z,12.10
2017-10-03T07:07:33.009Z,12.10
2017-10-03T07:09:59.810Z,12.10
2017-10-03T07:12:26.967Z,12.10
2017-10-03T07:14:53.404Z,12.10
2017-10-03T07:17:19.935Z,12.20
2017-10-03T07:19:47.122Z,12.20
2017-10-03T07:22:13.519Z,12.20
2017-10-03T07:24:40.712Z,12.30
2017-10-03T07:27:07.050Z,12.30
2017-10-03T07:29:33.340Z,12.30
2017-10-03T07:31:59.721Z,12.40
2017-10-03T07:34:26.109Z,12.50
2017-10-03T07:36:53.215Z,12.50
2017-10-03T07:39:19.682Z,12.50
2017-10-03T07:41:47.752Z,12.80
2017-10-03T07:44:14.982Z,13.00
2017-10-03T07:46:42.169Z,13.10
2017-10-03T07:49:09.322Z,13.20
2017-10-03T07:51:35.872Z,13.20
2017-10-03T07:54:02.347Z,13.20
2017-10-03T07:56:28.800Z,13.10
2017-10-03T07:58:55.336Z,13.00
2017-10-03T08:01:21.906Z,12.80
2017-10-03T08:03:48.610Z,12.80
2017-10-03T08:06:15.096Z,12.80
2017-10-03T08:08:41.498Z,12.80
2017-10-03T08:11:08.743Z,13.00
2017-10-03T08:13:35.855Z,13.20
2017-10-03T08:16:02.251Z,13.20
2017-10-03T08:18:28.571Z,13.10
2017-10-03T08:20:55.711Z,13.00
2017-10-03T08:23:22.755Z,13.00
2017-10-03T08:25:49.993Z,12.90
2017-10-03T08:28:16.335Z,12.90
2017-10-03T08:30:42.810Z,12.90
2017-10-03T08:33:09.382Z,13.10
2017-10-03T08:35:36.521Z,12.90
2017-10-03T08:38:03.040Z,12.90
2017-10-03T08:40:29.526Z,13.10
2017-10-03T08:42:55.916Z,13.10
2017-10-03T08:45:22.302Z,13.30
2017-10-03T08:47:49.484Z,13.50
2017-10-03T08:50:15.932Z,13.50
2017-10-03T08:52:42.366Z,13.40
2017-10-03T08:55:08.756Z,13.30
2017-10-03T08:57:35.992Z,13.20
2017-10-03T09:00:02.470Z,13.20
2017-10-03T09:02:31.108Z,13.30
2017-10-03T09:04:58.661Z,13.10
2017-10-03T09:07:25.236Z,13.10
2017-10-03T09:09:51.664Z,13.00
2017-10-03T09:12:18.607Z,13.10
2017-10-03T09:14:45.826Z,13.10
2017-10-03T09:17:13.086Z,13.10
2017-10-03T09:19:40.774Z,13.10
2017-10-03T09:22:07.978Z,13.20
2017-10-03T09:24:34.513Z,13.20
2017-10-03T09:27:01.139Z,13.20
2017-10-03T09:29:27.671Z,13.00
2017-10-03T09:31:54.568Z,13.00
2017-10-03T09:34:21.270Z,13.10
2017-10-03T09:36:48.665Z,13.10
2017-10-03T09:39:16.197Z,12.80
2017-10-03T09:41:42.642Z,12.80
2017-10-03T09:44:09.464Z,12.80
2017-10-03T09:46:35.905Z,12.90
2017-10-03T09:49:02.318Z,13.00
2017-10-03T09:51:28.753Z,13.00
2017-10-03T09:53:55.157Z,12.90
2017-10-03T09:56:21.971Z,12.70
2017-10-03T09:58:49.079Z,12.80
2017-10-03T10:01:15.487Z,12.80
2017-10-03T10:03:41.887Z,12.90
2017-10-03T10:06:08.934Z,13.00
2017-10-03T10:08:36.071Z,13.10
2017-10-03T10:11:02.661Z,13.10
2017-10-03T10:13:29.159Z,13.30
2017-10-03T10:15:56.301Z,13.50
2017-10-03T10:18:23.487Z,13.60
2017-10-03T10:20:49.870Z,13.60
2017-10-03T10:23:16.412Z,13.60
2017-10-03T10:25:42.810Z,13.70
2017-10-03T10:28:09.285Z,14.00
2017-10-03T10:30:36.393Z,14.40
2017-10-03T10:33:02.878Z,14.40
2017-10-03T10:35:29.303Z,14.60
2017-10-03T10:37:56.486Z,15.40
2017-10-03T10:40:22.976Z,15.40
2017-10-03T10:42:49.362Z,15.40
2017-10-03T10:45:15.916Z,15.60
2017-10-03T10:47:42.740Z,16.00
2017-10-03T10:50:09.185Z,16.10
2017-10-03T10:52:35.703Z,15.50
2017-10-03T10:55:02.213Z,15.80
2017-10-03T10:57:29.378Z,15.80
2017-10-03T10:59:56.737Z,15.80
2017-10-03T11:02:23.883Z,16.20
2017-10-03T11:04:50.283Z,16.20
2017-10-03T11:07:16.702Z,16.40
2017-10-03T11:09:43.223Z,16.30
2017-10-03T11:12:09.710Z,16.40
2017-10-03T11:14:36.766Z,16.60
2017-10-03T11:17:03.948Z,17.80
2017-10-03T11:19:30.417Z,17.80
2017-10-03T11:21:56.746Z,19.30
2017-10-03T11:24:41.863Z,19.50
2017-10-03T11:27:09.063Z,19.90
2017-10-03T11:29:35.442Z,19.90
2017-10-03T11:32:02.767Z,21.60
2017-10-03T11:34:29.077Z,21.50
2017-10-03T11:36:55.425Z,20.80
2017-10-03T11:39:22.151Z,21.70
2017-10-03T11:41:48.502Z,23.10
2017-10-03T11:44:14.913Z,24.70
2017-10-03T11:46:41.289Z,25.70
2017-10-03T11:49:07.607Z,25.10
2017-10-03T11:51:34.032Z,25.10
2017-10-03T11:54:00.545Z,26.00
2017-10-03T11:56:26.959Z,26.00
2017-10-03T11:58:53.320Z,26.80
2017-10-03T12:01:20.034Z,25.50
2017-10-03T12:03:46.335Z,24.20
2017-10-03T12:06:13.429Z,24.10
2017-10-03T12:08:39.752Z,24.10
2017-10-03T12:11:06.120Z,24.70
2017-10-03T12:13:32.564Z,25.50
2017-10-03T12:15:58.929Z,25.30
2017-10-03T12:18:25.283Z,26.30
2017-10-03T12:20:51.703Z,26.50
2017-10-03T12:23:18.711Z,26.80
2017-10-03T12:25:45.890Z,21.60
2017-10-03T12:28:12.357Z,21.60
2017-10-03T12:30:38.909Z,21.10
2017-10-03T12:33:05.371Z,21.40
2017-10-03T12:35:32.599Z,23.00
2017-10-03T12:37:59.075Z,23.00
2017-10-03T12:40:25.505Z,23.90
2017-10-03T12:42:51.885Z,24.40
2017-10-03T12:45:18.421Z,25.70
2017-10-03T12:47:44.947Z,22.00
2017-10-03T12:50:11.354Z,21.80
2017-10-03T12:52:37.695Z,23.50
2017-10-03T12:55:04.097Z,24.90
2017-10-03T12:57:30.499Z,23.70
2017-10-03T12:59:56.910Z,25.10
2017-10-03T13:02:23.370Z,25.10
2017-10-03T13:04:49.745Z,24.80
2017-10-03T13:07:16.149Z,25.70
2017-10-03T13:09:43.266Z,27.10
2017-10-03T13:12:09.634Z,27.00
2017-10-03T13:14:36.708Z,24.50
2017-10-03T13:17:03.060Z,24.40
2017-10-03T13:19:29.476Z,22.30
2017-10-03T13:21:56.083Z,21.10
2017-10-03T13:24:22.546Z,19.50
2017-10-03T13:26:49.053Z,17.60
2017-10-03T13:29:15.479Z,13.40
2017-10-03T13:31:41.925Z,12.20
2017-10-03T13:34:09.158Z,11.60
2017-10-03T13:36:35.519Z,11.60
2017-10-03T13:39:02.763Z,11.60
2017-10-03T13:41:29.924Z,11.80
2017-10-03T13:43:56.251Z,11.80
2017-10-03T13:46:23.314Z,12.20
2017-10-03T13:48:50.084Z,12.20
2017-10-03T13:51:16.535Z,12.50
2017-10-03T13:53:42.910Z,13.10
2017-10-03T13:56:10.138Z,15.40
2017-10-03T13:58:36.528Z,15.40
2017-10-03T14:01:03.024Z,15.70
2017-10-03T14:03:30.164Z,15.20
2017-10-03T14:05:57.298Z,16.00
2017-10-03T14:08:25.178Z,18.60
2017-10-03T14:10:51.542Z,18.60
2017-10-03T14:13:18.047Z,20.70
2017-10-03T14:15:45.317Z,22.50
2017-10-03T14:18:12.875Z,21.90
2017-10-03T14:20:40.450Z,22.30
2017-10-03T14:23:06.836Z,22.30
2017-10-03T14:25:33.457Z,23.60
2017-10-03T14:28:02.601Z,24.50
2017-10-03T14:30:29.782Z,25.20
2017-10-03T14:32:56.454Z,25.10
2017-10-03T14:35:23.621Z,24.20
2017-10-03T14:37:50.203Z,24.50
2017-10-03T14:40:16.899Z,26.80
2017-10-03T14:42:43.376Z,25.30
2017-10-03T14:45:09.806Z,25.30
2017-10-03T14:47:36.255Z,25.70
2017-10-03T14:50:02.971Z,24.10
2017-10-03T14:52:29.439Z,25.00
2017-10-03T14:54:56.018Z,25.40
2017-10-03T14:57:23.332Z,23.40
2017-10-03T14:59:49.786Z,23.40
2017-10-03T15:02:16.222Z,24.80
2017-10-03T15:04:42.674Z,24.40
2017-10-03T15:07:09.050Z,23.10
2017-10-03T15:09:36.885Z,22.10
2017-10-03T15:12:03.322Z,21.60
2017-10-03T15:14:30.548Z,23.50
2017-10-03T15:16:57.745Z,22.80
2017-10-03T15:19:24.135Z,22.70
2017-10-03T15:21:50.662Z,22.20
2017-10-03T15:24:17.059Z,23.40
2017-10-03T15:26:43.444Z,23.00
2017-10-03T15:29:11.459Z,19.50
2017-10-03T15:31:37.843Z,19.40
2017-10-03T15:34:05.050Z,17.70
2017-10-03T15:36:31.550Z,17.60
2017-10-03T15:38:57.958Z,17.30
2017-10-03T15:41:24.498Z,16.90
2017-10-03T15:43:50.808Z,16.60
2017-10-03T15:46:17.325Z,16.70
2017-10-03T15:48:43.808Z,16.40
2017-10-03T15:51:10.212Z,16.40
2017-10-03T15:53:36.676Z,16.30
2017-10-03T15:56:03.006Z,16.00
2017-10-03T15:58:29.458Z,15.90
2017-10-03T16:00:56.618Z,15.80
2017-10-03T16:03:22.991Z,15.80
2017-10-03T16:05:49.477Z,15.60
2017-10-03T16:08:16.709Z,15.30
2017-10-03T16:10:43.974Z,15.20
2017-10-03T16:13:10.543Z,15.20
2017-10-03T16:15:37.032Z,15.20
2017-10-03T16:18:04.335Z,15.00
2017-10-03T16:20:30.800Z,15.00
2017-10-03T16:22:57.173Z,15.00
2017-10-03T16:25:25.535Z,15.00
2017-10-03T16:27:52.803Z,14.70
2017-10-03T16:30:19.380Z,14.70
2017-10-03T16:32:45.701Z,14.50
2017-10-03T16:35:12.238Z,14.30
2017-10-03T16:37:38.672Z,14.10
2017-10-03T16:40:05.024Z,13.90
2017-10-03T16:42:31.399Z,13.80
2017-10-03T16:44:58.497Z,13.50
2017-10-03T16:47:24.910Z,13.50
2017-10-03T16:49:51.318Z,13.30
2017-10-03T16:52:18.501Z,13.00
2017-10-03T16:54:45.355Z,13.00
2017-10-03T16:57:11.753Z,13.00
2017-10-03T16:59:38.175Z,12.90
2017-10-03T17:02:05.263Z,12.90
2017-10-03T17:04:31.623Z,12.90
2017-10-03T17:06:57.983Z,12.90
2017-10-03T17:09:24.429Z,12.90
2017-10-03T17:11:51.525Z,12.90
2017-10-03T17:14:17.853Z,12.90
2017-10-03T17:16:44.353Z,12.90
2017-10-03T17:19:11.071Z,13.00
2017-10-03T17:21:39.506Z,13.00
2017-10-03T17:24:06.050Z,13.00
2017-10-03T17:26:32.610Z,13.00
2017-10-03T17:28:59.212Z,13.00
2017-10-03T17:31:25.604Z,13.00
2017-10-03T17:33:52.754Z,12.80
2017-10-03T17:36:19.302Z,12.80
2017-10-03T17:38:46.477Z,12.70
2017-10-03T17:41:12.933Z,12.70
2017-10-03T17:43:39.311Z,12.60
2017-10-03T17:46:06.367Z,12.60
2017-10-03T17:48:33.441Z,12.50
2017-10-03T17:50:59.775Z,12.50
2017-10-03T17:53:26.110Z,12.50
2017-10-03T17:55:52.527Z,12.50
2017-10-03T17:58:18.980Z,12.40
2017-10-03T18:00:45.429Z,12.40
2017-10-03T18:03:12.090Z,12.40
2017-10-03T18:05:39.332Z,12.40
2017-10-03T18:08:05.674Z,12.40
2017-10-03T18:10:33.006Z,12.50
2017-10-03T18:12:59.398Z,12.40
2017-10-03T18:15:25.912Z,12.50
2017-10-03T18:17:53.204Z,12.60
2017-10-03T18:20:19.574Z,12.60
2017-10-03T18:22:45.958Z,12.70
2017-10-03T18:25:12.460Z,12.60
2017-10-03T18:27:38.867Z,12.60
2017-10-03T18:30:05.287Z,12.60
2017-10-03T18:32:31.840Z,12.60
2017-10-03T18:34:58.162Z,12.60
2017-10-03T18:37:24.629Z,12.70
2017-10-03T18:39:51.174Z,12.70
2017-10-03T18:42:18.687Z,12.70
2017-10-03T18:44:45.087Z,12.70
2017-10-03T18:47:11.589Z,12.80
2017-10-03T18:49:38.185Z,12.80
2017-10-03T18:52:04.593Z,12.90
2017-10-03T18:54:32.174Z,12.90
2017-10-03T18:56:58.764Z,12.90
2017-10-03T18:59:25.970Z,12.90
2017-10-03T19:01:52.391Z,12.90
2017-10-03T19:04:18.951Z,12.90
2017-10-03T19:06:45.577Z,12.80
2017-10-03T19:09:12.158Z,12.80
2017-10-03T19:11:39.343Z,12.90
2017-10-03T19:14:05.855Z,12.90
2017-10-03T19:16:33.561Z,13.00
2017-10-03T19:19:00.108Z,13.00
2017-10-03T19:21:26.700Z,13.00
2017-10-03T19:23:54.076Z,12.90
2017-10-03T19:26:20.575Z,12.90
2017-10-03T19:28:47.783Z,12.80
2017-10-03T19:31:14.412Z,12.80
2017-10-03T19:33:40.831Z,12.70
2017-10-03T19:36:07.298Z,12.70
2017-10-03T19:38:33.704Z,12.70
2017-10-03T19:41:00.852Z,12.60
2017-10-03T19:43:27.310Z,12.70
2017-10-03T19:45:53.738Z,12.70
2017-10-03T19:48:20.221Z,12.70
2017-10-03T19:50:47.437Z,12.60
2017-10-03T19:53:13.806Z,12.60
2017-10-03T19:55:40.904Z,12.60
2017-10-03T19:58:08.300Z,12.60
2017-10-03T20:00:34.669Z,12.60
2017-10-03T20:03:01.064Z,12.60
2017-10-03T20:05:27.529Z,12.60
2017-10-03T20:07:54.040Z,12.50
2017-10-03T20:10:20.412Z,12.50
2017-10-03T20:12:46.793Z,12.50
2017-10-03T20:15:13.167Z,12.40
2017-10-03T20:17:39.563Z,12.40
2017-10-03T20:20:06.752Z,12.40
2017-10-03T20:22:33.171Z,12.30
2017-10-03T20:25:00.230Z,12.30
2017-10-03T20:27:26.622Z,12.20
2017-10-03T20:29:53.002Z,12.20
2017-10-03T20:32:19.348Z,12.20
2017-10-03T20:34:45.951Z,12.20
2017-10-03T20:37:13.067Z,12.10
2017-10-03T20:39:39.530Z,12.10
2017-10-03T20:42:10.163Z,12.10
2017-10-03T20:44:37.293Z,12.10
2017-10-03T20:47:04.465Z,12.10
2017-10-03T20:49:31.573Z,12.00
2017-10-03T20:51:57.943Z,12.00
2017-10-03T20:54:25.019Z,12.00
2017-10-03T20:56:51.394Z,12.00
2017-10-03T20:59:17.893Z,12.00
2017-10-03T21:01:44.319Z,12.00
2017-10-03T21:04:10.768Z,12.00
2017-10-03T21:06:37.210Z,12.00
2017-10-03T21:09:03.604Z,12.10
2017-10-03T21:11:39.633Z,12.10
2017-10-03T21:14:12.082Z,12.30
2017-10-03T21:16:38.450Z,12.20
2017-10-03T21:19:09.083Z,12.30
2017-10-03T21:21:39.304Z,12.30
2017-10-03T21:24:13.421Z,12.30
2017-10-03T21:26:40.052Z,12.30
2017-10-03T21:29:08.780Z,12.30
2017-10-03T21:31:39.042Z,12.40
2017-10-03T21:34:09.644Z,12.40
2017-10-03T21:36:41.294Z,12.40
2017-10-03T21:39:08.412Z,12.40
2017-10-03T21:41:57.476Z,12.40
2017-10-03T21:44:28.852Z,12.40
2017-10-03T21:47:11.691Z,12.40
2017-10-03T21:49:38.293Z,12.50
2017-10-03T21:52:11.512Z,12.50
2017-10-03T21:54:40.633Z,12.50
2017-10-03T21:57:31.946Z,12.50
2017-10-03T22:00:00.811Z,12.50
2017-10-03T22:02:31.596Z,12.40
2017-10-03T22:05:01.126Z,12.50
2017-10-03T22:07:28.326Z,12.40
2017-10-03T22:10:09.267Z,12.40
2017-10-03T22:18:38.166Z,12.30
2017-10-03T22:21:04.559Z,12.30
2017-10-03T22:23:31.207Z,12.30
2017-10-03T22:25:57.583Z,12.30
2017-10-03T22:28:26.556Z,12.30
2017-10-03T22:30:53.009Z,12.30
2017-10-03T22:33:19.836Z,12.30
2017-10-03T22:35:46.170Z,12.30
2017-10-03T22:38:12.515Z,12.20
2017-10-03T22:40:40.135Z,12.20
2017-10-03T22:43:06.489Z,12.20
2017-10-03T22:45:32.882Z,12.20
2017-10-03T22:48:00.824Z,12.20
2017-10-03T22:50:27.321Z,12.30
2017-10-03T22:52:53.657Z,12.30
2017-10-03T22:55:24.043Z,12.30
2017-10-03T22:57:50.379Z,12.30
2017-10-03T23:00:16.727Z,12.30
2017-10-03T23:02:43.034Z,12.40
2017-10-03T23:05:09.842Z,12.40
2017-10-03T23:07:36.165Z,12.40
2017-10-03T23:10:02.490Z,12.40
2017-10-03T23:12:28.970Z,12.30
2017-10-03T23:14:55.260Z,12.30
2017-10-03T23:17:22.333Z,12.30
2017-10-03T23:19:48.632Z,12.30
2017-10-03T23:22:14.958Z,12.30
2017-10-03T23:24:41.248Z,12.30
2017-10-03T23:27:07.649Z,12.30
2017-10-03T23:29:34.741Z,12.30
2017-10-03T23:32:01.101Z,12.30
2017-10-03T23:34:27.529Z,12.20
2017-10-03T23:36:54.082Z,12.10
2017-10-03T23:39:20.448Z,12.10
2017-10-03T23:41:46.771Z,12.10
2017-10-03T23:44:13.837Z,12.10
2017-10-03T23:46:40.219Z,12.00
2017-10-03T23:49:06.641Z,12.00
2017-10-03T23:51:33.333Z,11.90
2017-10-03T23:53:59.687Z,11.90
2017-10-03T23:56:26.032Z,11.80
2017-10-03T23:58:52.473Z,11.70
